Time;durP1;ratioP1;P1;durP2;ratioP2;P2;SDS_P1;SDS_P2;PMS_P1;PMS_P2;Temp;Humidity;BMP_temperature;BMP_pressure;BME280_temperature;BME280_humidity;BME280_pressure;Samples;Min_cycle;Max_cycle;Signal;HPM_P1;HPM_P2
2022/02/25 00:01:24;;;;;;;2.83;1.65;;;;;;;9.96;43.97;101309.34;5047139;28;20040;-77
2022/02/25 00:03:51;;;;;;;3.38;1.90;;;;;;;9.92;43.64;101306.78;5041784;28;20057;-77
2022/02/25 00:06:19;;;;;;;3.35;1.75;;;;;;;9.91;43.91;101310.47;5052763;28;20045;-77
2022/02/25 00:08:46;;;;;;;3.30;1.83;;;;;;;9.90;43.88;101316.84;5053195;28;20585;-77
2022/02/25 00:11:13;;;;;;;4.03;1.90;;;;;;;9.90;43.93;101310.53;5054100;28;20084;-77
2022/02/25 00:13:39;;;;;;;2.80;1.80;;;;;;;9.89;44.08;101316.91;5047250;28;20053;-76
2022/02/25 00:16:06;;;;;;;4.00;1.70;;;;;;;9.88;44.32;101312.50;5056692;28;20076;-77
2022/02/25 00:19:13;;;;;;;4.45;1.70;;;;;;;9.90;44.58;101324.09;5052232;28;20057;-76
2022/02/25 00:21:41;;;;;;;3.53;2.00;;;;;;;9.86;44.42;101325.25;5049473;28;20057;-77
2022/02/25 00:24:08;;;;;;;2.65;1.67;;;;;;;9.88;44.52;101339.63;5047649;28;20056;-77
2022/02/25 00:26:35;;;;;;;3.70;1.70;;;;;;;9.90;44.60;101335.81;5062622;28;20052;-76
2022/02/25 00:29:03;;;;;;;3.47;1.60;;;;;;;9.90;44.29;101340.38;5050794;28;20061;-77
2022/02/25 00:31:31;;;;;;;4.00;1.92;;;;;;;9.90;44.18;101341.25;5061175;28;20079;-77
2022/02/25 00:33:58;;;;;;;2.13;1.50;;;;;;;9.90;44.25;101345.78;5054365;28;20059;-78
2022/02/25 00:36:26;;;;;;;3.17;1.60;;;;;;;9.90;44.22;101338.53;5050471;28;20037;-78
2022/02/25 00:38:53;;;;;;;3.95;2.00;;;;;;;9.91;43.84;101347.56;5049584;28;20060;-77
2022/02/25 00:41:20;;;;;;;4.65;1.90;;;;;;;9.90;44.09;101353.94;5056386;28;20045;-77
2022/02/25 00:43:46;;;;;;;4.10;1.70;;;;;;;9.88;43.79;101355.88;5058239;28;20558;-78
2022/02/25 00:46:13;;;;;;;3.60;1.80;;;;;;;9.89;44.01;101357.59;5053228;28;20048;-77
2022/02/25 00:48:40;;;;;;;4.68;1.60;;;;;;;9.88;43.72;101359.44;5038698;28;20058;-79
2022/02/25 00:51:06;;;;;;;4.18;1.60;;;;;;;9.87;43.90;101363.13;5060287;28;20114;-77
2022/02/25 00:53:33;;;;;;;3.33;1.50;;;;;;;9.85;43.95;101356.91;5050390;28;20056;-78
2022/02/25 00:55:59;;;;;;;4.97;1.70;;;;;;;9.84;43.79;101370.56;5050768;28;20555;-79
2022/02/25 00:58:26;;;;;;;3.00;1.60;;;;;;;9.83;44.05;101360.66;5045961;28;20531;-77
2022/02/25 01:00:55;;;;;;;3.28;1.63;;;;;;;9.81;43.84;101368.88;5049869;28;20045;-78
2022/02/25 01:03:22;;;;;;;5.65;1.50;;;;;;;9.77;43.60;101375.44;5060184;28;20048;-78
2022/02/25 01:05:48;;;;;;;4.28;1.52;;;;;;;9.76;43.68;101378.25;5055378;28;20448;-78
2022/02/25 01:08:15;;;;;;;3.67;1.40;;;;;;;9.71;43.54;101380.34;5060022;28;20105;-77
2022/02/25 01:10:42;;;;;;;4.50;1.33;;;;;;;9.69;43.34;101384.97;5049451;28;20092;-76
2022/02/25 01:13:08;;;;;;;3.60;1.45;;;;;;;9.66;43.60;101385.13;5048342;28;20099;-77
2022/02/25 01:15:35;;;;;;;3.85;1.38;;;;;;;9.64;43.75;101392.44;5047433;28;20096;-77
2022/02/25 01:18:00;;;;;;;4.35;1.48;;;;;;;9.62;43.87;101394.41;5048698;28;20388;-78
2022/02/25 01:20:27;;;;;;;5.10;1.45;;;;;;;9.62;44.06;101397.09;5048260;28;20091;-77
2022/02/25 01:22:54;;;;;;;3.45;1.20;;;;;;;9.62;43.77;101403.41;5051024;28;20053;-78
2022/02/25 01:25:20;;;;;;;2.60;1.38;;;;;;;9.60;43.62;101396.31;5035167;28;20041;-77
2022/02/25 01:27:47;;;;;;;2.92;1.38;;;;;;;9.58;43.42;101398.22;5049436;28;20084;-78
2022/02/25 01:30:13;;;;;;;3.78;1.45;;;;;;;9.57;43.71;101404.59;5030552;28;20126;-77
2022/02/25 01:32:41;;;;;;;3.78;1.13;;;;;;;9.53;43.41;101403.91;5049320;28;20307;-78
2022/02/25 01:35:08;;;;;;;2.28;1.30;;;;;;;9.53;43.43;101404.78;5060358;28;20132;-78
2022/02/25 01:37:35;;;;;;;3.70;1.40;;;;;;;9.53;43.39;101409.31;5036405;28;20045;-77
2022/02/25 01:40:03;;;;;;;2.85;1.20;;;;;;;9.51;43.45;101417.53;5047961;28;20084;-77
2022/02/25 01:42:29;;;;;;;2.72;1.30;;;;;;;9.47;43.12;101410.50;5049272;28;20076;-77
2022/02/25 01:44:56;;;;;;;3.78;1.30;;;;;;;9.44;43.33;101412.53;5047916;28;20041;-77
2022/02/25 01:47:22;;;;;;;4.47;1.40;;;;;;;9.42;43.63;101418.03;5049797;28;20083;-77
2022/02/25 01:49:52;;;;;;;3.40;1.38;;;;;;;9.40;43.77;101419.94;5046992;28;21144;-77
2022/02/25 01:52:20;;;;;;;3.35;1.10;;;;;;;9.41;43.21;101418.09;5039204;28;20049;-75
2022/02/25 01:54:47;;;;;;;2.58;1.20;;;;;;;9.40;43.45;101421.75;5047180;28;20081;-76
2022/02/25 01:57:16;;;;;;;4.03;1.30;;;;;;;9.41;43.74;101420.81;5048888;28;20087;-75
2022/02/25 01:59:43;;;;;;;3.25;1.23;;;;;;;9.38;43.55;101416.44;5048537;28;20060;-75
2022/02/25 02:02:11;;;;;;;5.63;1.77;;;;;;;9.39;43.61;101417.28;5053578;28;20080;-75
2022/02/25 02:04:38;;;;;;;4.82;1.38;;;;;;;9.39;43.61;101412.75;5051917;28;20049;-76
2022/02/25 02:07:05;;;;;;;3.03;1.23;;;;;;;9.38;43.62;101416.44;5052745;28;20049;-76
2022/02/25 02:09:32;;;;;;;5.20;1.58;;;;;;;9.37;43.84;101414.69;5051596;28;20467;-76
2022/02/25 02:11:58;;;;;;;3.60;1.48;;;;;;;9.36;43.71;101412.06;5052890;28;20135;-76
2022/02/25 02:14:25;;;;;;;4.35;1.35;;;;;;;9.36;43.33;101415.66;5051624;28;20053;-75
2022/02/25 02:16:58;;;;;;;3.70;1.30;;;;;;;9.37;43.56;101413.81;5050997;28;20044;-76
2022/02/25 02:19:25;;;;;;;3.17;1.27;;;;;;;9.34;43.48;101419.38;5056361;28;20127;-75
2022/02/25 02:21:56;;;;;;;5.25;1.58;;;;;;;9.35;43.38;101413.00;5058205;28;20080;-75
2022/02/25 02:24:23;;;;;;;4.65;1.50;;;;;;;9.31;43.07;101412.28;5051144;28;20049;-76
2022/02/25 02:26:52;;;;;;;4.72;1.70;;;;;;;9.30;43.46;101412.38;5052334;28;20080;-76
2022/02/25 02:29:20;;;;;;;3.38;1.30;;;;;;;9.27;43.11;101409.81;5039914;28;20060;-77
2022/02/25 02:31:46;;;;;;;3.10;1.40;;;;;;;9.24;43.46;101416.28;5032875;28;20048;-77
2022/02/25 02:34:15;;;;;;;5.00;1.58;;;;;;;9.24;43.41;101410.84;5050272;28;20084;-76
2022/02/25 02:36:42;;;;;;;3.80;1.25;;;;;;;9.23;43.19;101419.06;5052002;28;20081;-76
2022/02/25 02:39:10;;;;;;;3.25;1.25;;;;;;;9.20;43.25;101417.41;5050948;28;20539;-77
2022/02/25 02:41:37;;;;;;;5.57;1.30;;;;;;;9.19;43.41;101412.94;5052603;28;20454;-77
2022/02/25 02:44:04;;;;;;;4.03;1.38;;;;;;;9.21;43.38;101415.56;5051433;28;20091;-77
2022/02/25 02:46:31;;;;;;;3.40;1.50;;;;;;;9.17;43.16;101420.25;5051848;28;20045;-76
2022/02/25 02:48:58;;;;;;;2.80;1.20;;;;;;;9.15;43.48;101417.63;5047525;28;20061;-76
2022/02/25 02:51:24;;;;;;;3.50;1.30;;;;;;;9.16;43.43;101421.22;5056178;28;20499;-76
2022/02/25 02:53:51;;;;;;;3.40;1.33;;;;;;;9.15;43.51;101422.16;5047554;28;20072;-76
2022/02/25 02:56:18;;;;;;;3.15;1.35;;;;;;;9.15;43.36;101423.03;5051365;28;20128;-76
2022/02/25 02:58:44;;;;;;;4.15;1.40;;;;;;;9.16;43.68;101429.34;5049768;28;20107;-77
2022/02/25 03:01:11;;;;;;;5.18;1.85;;;;;;;9.18;43.71;101429.28;5056608;28;20106;-77
2022/02/25 03:03:38;;;;;;;6.28;1.60;;;;;;;9.20;43.98;101427.38;5050556;28;20056;-76
2022/02/25 03:06:07;;;;;;;3.78;1.38;;;;;;;9.21;44.06;101435.41;5051268;28;20484;-77
2022/02/25 03:08:33;;;;;;;4.10;1.27;;;;;;;9.23;44.10;101428.06;5049976;28;20088;-77
2022/02/25 03:11:00;;;;;;;6.85;1.35;;;;;;;9.27;43.96;101434.22;5056252;28;20091;-77
2022/02/25 03:13:26;;;;;;;4.50;1.40;;;;;;;9.29;43.99;101432.31;5056761;28;20083;-76
2022/02/25 03:15:53;;;;;;;4.60;1.08;;;;;;;9.33;44.02;101440.19;5043387;28;20076;-76
2022/02/25 03:18:20;;;;;;;4.30;1.20;;;;;;;9.35;44.09;101435.56;5049476;28;20504;-76
2022/02/25 03:20:46;;;;;;;4.45;1.30;;;;;;;9.38;44.13;101439.97;5056987;28;20059;-76
2022/02/25 03:23:13;;;;;;;3.67;1.17;;;;;;;9.39;43.84;101442.56;5050072;28;20106;-76
2022/02/25 03:25:40;;;;;;;4.32;1.30;;;;;;;9.42;43.92;101455.97;5048855;28;20056;-77
2022/02/25 03:28:07;;;;;;;2.50;1.08;;;;;;;9.44;44.11;101445.94;5050961;28;20151;-77
2022/02/25 03:30:34;;;;;;;3.47;1.30;;;;;;;9.47;44.01;101447.59;5050995;28;20091;-77
2022/02/25 03:33:01;;;;;;;4.82;1.27;;;;;;;9.50;44.05;101455.56;5048991;28;20472;-77
2022/02/25 03:35:28;;;;;;;2.88;1.15;;;;;;;9.51;43.46;101449.19;5050300;28;20052;-77
2022/02/25 03:37:54;;;;;;;2.92;1.40;;;;;;;9.52;44.05;101445.50;5045015;28;20060;-77
2022/02/25 03:40:21;;;;;;;3.22;1.23;;;;;;;9.53;43.89;101455.41;5028848;28;20073;-77
2022/02/25 03:42:48;;;;;;;3.75;1.25;;;;;;;9.54;43.89;101449.91;5043888;28;20144;-76
2022/02/25 03:45:17;;;;;;;3.50;1.30;;;;;;;9.55;43.77;101453.50;5026838;28;20496;-77
2022/02/25 03:47:44;;;;;;;4.57;1.50;;;;;;;9.55;43.88;101457.06;5041524;28;20046;-77
2022/02/25 03:50:10;;;;;;;4.53;1.20;;;;;;;9.58;43.72;101463.28;5049800;28;20132;-77
2022/02/25 03:52:38;;;;;;;3.30;1.30;;;;;;;9.58;43.71;101461.44;5058304;28;20143;-77
2022/02/25 03:55:06;;;;;;;3.35;1.35;;;;;;;9.60;44.04;101455.94;5048139;28;20135;-77
2022/02/25 03:57:33;;;;;;;3.40;1.27;;;;;;;9.58;43.98;101452.44;5064689;28;20510;-76
2022/02/25 03:59:59;;;;;;;4.00;1.33;;;;;;;9.60;44.10;101462.25;5036169;28;20163;-77
2022/02/25 04:02:27;;;;;;;5.00;1.33;;;;;;;9.60;44.00;101461.38;5051477;28;20056;-76
2022/02/25 04:04:54;;;;;;;6.25;1.40;;;;;;;9.60;44.03;101461.38;5048695;28;20056;-77
2022/02/25 04:07:23;;;;;;;4.28;1.30;;;;;;;9.59;44.14;101457.78;5051857;28;20088;-77
2022/02/25 04:09:50;;;;;;;3.00;1.30;;;;;;;9.60;43.90;101464.09;5065074;28;20092;-76
2022/02/25 04:12:18;;;;;;;5.75;1.60;;;;;;;9.61;43.90;101466.72;5042031;28;20400;-76
2022/02/25 04:14:44;;;;;;;5.47;1.30;;;;;;;9.61;43.93;101466.72;5045252;28;20140;-76
2022/02/25 04:17:12;;;;;;;4.32;1.20;;;;;;;9.62;43.76;101473.03;5027921;28;20162;-76
2022/02/25 04:19:38;;;;;;;4.35;1.30;;;;;;;9.62;43.79;101465.75;5044949;28;20563;-76
2022/02/25 04:22:05;;;;;;;2.55;1.27;;;;;;;9.61;43.31;101479.41;5049362;28;20354;-76
2022/02/25 04:24:31;;;;;;;2.80;1.27;;;;;;;9.59;43.33;101467.75;5048631;28;20084;-76
2022/02/25 04:26:58;;;;;;;4.75;1.83;;;;;;;9.57;43.32;101467.81;5048353;28;20091;-76
2022/02/25 04:29:25;;;;;;;3.60;1.20;;;;;;;9.57;43.41;101477.78;5046188;28;20053;-76
2022/02/25 04:31:51;;;;;;;6.55;1.40;;;;;;;9.56;43.36;101487.75;5050541;28;20048;-75
2022/02/25 04:34:18;;;;;;;5.00;1.30;;;;;;;9.54;43.64;101482.44;5048998;28;20057;-76
2022/02/25 04:36:45;;;;;;;2.90;1.10;;;;;;;9.53;43.34;101474.38;5053318;28;20128;-76
2022/02/25 04:39:12;;;;;;;4.70;1.35;;;;;;;9.50;43.19;101469.09;5049195;28;20504;-75
2022/02/25 04:41:38;;;;;;;6.13;1.50;;;;;;;9.49;43.04;101478.19;5031838;28;20129;-76
2022/02/25 04:44:05;;;;;;;4.00;1.20;;;;;;;9.47;43.25;101472.00;5049138;28;20052;-76
2022/02/25 04:46:33;;;;;;;5.20;1.42;;;;;;;9.45;43.32;101474.78;5045668;28;20049;-76
2022/02/25 04:49:00;;;;;;;5.20;1.10;;;;;;;9.44;43.34;101466.72;5044766;28;20114;-76
2022/02/25 04:51:27;;;;;;;4.43;1.50;;;;;;;9.43;43.68;101464.97;5054470;28;20077;-76
2022/02/25 04:53:54;;;;;;;5.45;1.33;;;;;;;9.40;43.50;101463.28;5043714;28;20049;-75
2022/02/25 04:56:21;;;;;;;6.22;1.25;;;;;;;9.39;43.60;101453.41;5034947;28;20131;-75
2022/02/25 04:58:47;;;;;;;5.75;1.60;;;;;;;9.39;43.52;101458.81;5027571;28;20088;-76
2022/02/25 05:01:14;;;;;;;6.45;1.40;;;;;;;9.37;43.30;101455.34;5044828;28;20107;-75
2022/02/25 05:03:41;;;;;;;4.10;1.55;;;;;;;9.36;43.61;101459.00;5047002;28;20072;-76
2022/02/25 05:06:07;;;;;;;4.40;1.40;;;;;;;9.35;43.60;101454.53;5044557;28;20056;-77
2022/02/25 05:08:34;;;;;;;3.88;1.27;;;;;;;9.36;43.39;101469.84;5048597;28;20139;-76
2022/02/25 05:11:01;;;;;;;3.00;1.30;;;;;;;9.35;43.10;101468.09;5056027;28;20091;-76
2022/02/25 05:13:29;;;;;;;4.43;1.30;;;;;;;9.35;43.24;101475.34;5061443;28;20048;-76
2022/02/25 05:21:28;;;;;;;3.40;1.33;;;;;;;9.32;43.66;101465.53;5039877;28;20496;-76
2022/02/25 05:23:55;;;;;;;6.70;1.50;;;;;;;9.33;43.88;101467.28;5048111;28;20136;-76
2022/02/25 05:26:22;;;;;;;6.47;1.60;;;;;;;9.34;43.71;101470.88;5048441;28;20155;-76
2022/02/25 05:28:49;;;;;;;4.63;1.40;;;;;;;9.34;43.47;101471.75;5048216;28;20060;-77
2022/02/25 05:31:16;;;;;;;5.78;1.50;;;;;;;9.33;43.57;101467.28;5049209;28;20497;-77
2022/02/25 05:33:43;;;;;;;3.60;1.23;;;;;;;9.33;43.75;101463.69;5048143;28;20053;-77
2022/02/25 05:36:09;;;;;;;5.05;1.40;;;;;;;9.32;43.37;101464.63;5048300;28;20076;-77
2022/02/25 05:38:36;;;;;;;5.07;1.33;;;;;;;9.30;43.51;101469.28;5047809;28;20488;-77
2022/02/25 05:41:02;;;;;;;8.20;1.98;;;;;;;9.31;43.57;101469.19;5048677;28;20053;-77
2022/02/25 05:43:30;;;;;;;3.97;1.40;;;;;;;9.29;43.39;101468.41;5030340;28;20143;-77
2022/02/25 05:45:56;;;;;;;5.47;1.38;;;;;;;9.28;43.68;101472.06;5048332;28;20998;-77
2022/02/25 05:48:23;;;;;;;5.10;2.20;;;;;;;9.28;43.46;101477.50;5028466;28;20488;-77
2022/02/25 05:50:51;;;;;;;5.07;1.40;;;;;;;9.28;43.91;101477.50;5048340;28;20048;-77
2022/02/25 05:53:18;;;;;;;5.13;1.20;;;;;;;9.28;43.74;101471.19;5037677;28;20081;-77
2022/02/25 05:55:45;;;;;;;4.88;1.42;;;;;;;9.26;43.55;101482.09;5029894;28;20106;-77
2022/02/25 05:58:11;;;;;;;5.18;1.40;;;;;;;9.27;43.69;101475.72;5040338;28;20088;-77
2022/02/25 06:00:38;;;;;;;5.18;1.30;;;;;;;9.27;43.84;101481.16;5024731;28;20446;-77
2022/02/25 06:03:05;;;;;;;6.05;1.60;;;;;;;9.28;44.00;101479.31;5026940;28;20560;-78
2022/02/25 06:05:32;;;;;;;3.95;1.40;;;;;;;9.28;43.45;101482.03;5033926;28;20061;-77
2022/02/25 06:08:00;;;;;;;4.30;1.50;;;;;;;9.28;43.85;101482.03;5039558;28;20481;-78
2022/02/25 06:10:30;;;;;;;4.00;1.33;;;;;;;9.28;43.80;101491.03;5044615;28;20045;-77
2022/02/25 06:12:57;;;;;;;5.40;1.60;;;;;;;9.28;43.88;101498.28;5034922;28;20145;-77
2022/02/25 06:15:24;;;;;;;5.00;1.50;;;;;;;9.30;43.72;101494.56;5057958;28;20053;-77
2022/02/25 06:17:52;;;;;;;4.85;1.65;;;;;;;9.30;43.42;101510.81;5026983;28;20057;-77
2022/02/25 06:20:20;;;;;;;4.53;1.55;;;;;;;9.30;43.72;101512.66;5057878;28;20045;-77
2022/02/25 06:22:47;;;;;;;4.18;1.55;;;;;;;9.29;43.57;101500.94;5051510;28;20084;-77
2022/02/25 06:25:16;;;;;;;5.00;1.35;;;;;;;9.28;43.80;101510.00;5046664;28;20095;-77
2022/02/25 06:27:43;;;;;;;5.13;1.60;;;;;;;9.28;43.53;101501.88;5048737;28;20396;-77
2022/02/25 06:30:11;;;;;;;5.95;1.33;;;;;;;9.30;43.71;101508.09;5042199;28;20060;-77
2022/02/25 06:32:38;;;;;;;4.07;1.23;;;;;;;9.30;43.88;101509.94;5049081;28;20076;-77
2022/02/25 06:35:06;;;;;;;5.88;1.50;;;;;;;9.28;43.74;101507.28;5046249;28;20072;-76
2022/02/25 06:37:33;;;;;;;5.05;1.55;;;;;;;9.29;43.75;101514.47;5048692;28;20072;-77
2022/02/25 06:39:59;;;;;;;7.43;1.92;;;;;;;9.30;43.88;101509.94;5043659;28;20066;-77
2022/02/25 06:42:27;;;;;;;7.38;1.50;;;;;;;9.31;43.94;101514.38;5035349;28;20404;-77
2022/02/25 06:44:54;;;;;;;5.80;1.38;;;;;;;9.30;43.67;101510.81;5046784;28;20106;-77
2022/02/25 06:47:20;;;;;;;7.47;1.55;;;;;;;9.30;43.67;101518.94;5052099;28;20500;-78
2022/02/25 06:49:47;;;;;;;5.50;1.60;;;;;;;9.31;43.42;101514.38;5053791;28;20080;-78
2022/02/25 06:52:14;;;;;;;4.65;1.38;;;;;;;9.30;43.28;101513.53;5052011;28;20048;-77
2022/02/25 06:54:41;;;;;;;5.35;1.30;;;;;;;9.28;43.36;101519.97;5037650;28;20165;-78
2022/02/25 06:57:09;;;;;;;3.60;1.10;;;;;;;9.26;43.45;101530.88;5064307;28;20044;-77
2022/02/25 06:59:36;;;;;;;4.20;1.42;;;;;;;9.25;43.27;101515.56;5051116;28;20057;-77
2022/02/25 07:02:03;;;;;;;3.58;1.33;;;;;;;9.24;43.26;101529.19;5040568;28;20079;-77
2022/02/25 07:04:30;;;;;;;4.90;1.52;;;;;;;9.22;43.00;101528.41;5068344;28;20060;-77
2022/02/25 07:06:57;;;;;;;4.65;1.33;;;;;;;9.20;43.44;101525.78;5053476;28;20037;-77
2022/02/25 07:09:23;;;;;;;5.53;1.73;;;;;;;9.18;43.38;101524.97;5050739;28;20085;-77
2022/02/25 07:11:50;;;;;;;6.43;1.48;;;;;;;9.18;43.57;101538.50;5048783;28;20567;-77
2022/02/25 07:14:18;;;;;;;6.30;1.52;;;;;;;9.18;43.28;101535.81;5050987;28;20053;-77
2022/02/25 07:16:44;;;;;;;4.97;1.35;;;;;;;9.16;43.60;101538.59;5033101;28;20081;-77
2022/02/25 07:19:11;;;;;;;4.80;1.38;;;;;;;9.16;43.69;101532.28;5046279;28;20045;-77
2022/02/25 07:21:38;;;;;;;7.40;1.45;;;;;;;9.17;43.60;101536.75;5051563;28;20048;-77
2022/02/25 07:24:05;;;;;;;5.40;1.58;;;;;;;9.19;43.60;101536.69;5032540;28;20044;-77
2022/02/25 07:26:35;;;;;;;6.03;1.83;;;;;;;9.20;43.93;101538.44;5050922;28;20048;-77
2022/02/25 07:29:03;;;;;;;4.95;1.30;;;;;;;9.24;43.84;101540.03;5055804;28;20064;-77
2022/02/25 07:31:29;;;;;;;4.75;1.70;;;;;;;9.26;43.62;101540.84;5045135;28;20049;-77
2022/02/25 07:34:02;;;;;;;5.55;1.33;;;;;;;9.26;43.54;101535.41;5055833;28;20059;-77
2022/02/25 07:36:28;;;;;;;6.45;1.40;;;;;;;9.30;43.59;101539.75;5050225;28;20396;-78
2022/02/25 07:38:55;;;;;;;4.30;1.50;;;;;;;9.31;43.33;101536.94;5044851;28;20509;-77
2022/02/25 07:41:22;;;;;;;7.13;1.58;;;;;;;9.31;43.54;101549.59;5029563;28;20056;-77
2022/02/25 07:43:48;;;;;;;4.38;1.35;;;;;;;9.31;43.22;101539.63;5043646;28;20128;-78
2022/02/25 07:46:16;;;;;;;4.68;1.05;;;;;;;9.32;43.48;101544.09;5045007;28;20045;-78
2022/02/25 07:48:43;;;;;;;4.20;1.30;;;;;;;9.31;43.56;101538.75;5058014;28;20056;-78
2022/02/25 07:51:10;;;;;;;6.68;1.20;;;;;;;9.29;43.28;101543.41;5052195;28;20052;-77
2022/02/25 07:53:37;;;;;;;5.00;1.33;;;;;;;9.29;43.55;101540.69;5050222;28;20083;-77
2022/02/25 07:56:04;;;;;;;5.57;1.77;;;;;;;9.31;43.43;101542.34;5050202;28;20049;-77
2022/02/25 07:58:32;;;;;;;5.63;1.98;;;;;;;9.29;43.44;101541.56;5047847;28;20076;-78
2022/02/25 08:01:00;;;;;;;6.22;1.63;;;;;;;9.27;43.64;101548.00;5033365;28;20044;-77
2022/02/25 08:03:28;;;;;;;4.82;1.42;;;;;;;9.21;43.52;101551.91;5048789;28;20495;-77
2022/02/25 08:05:55;;;;;;;6.70;1.70;;;;;;;9.18;44.06;101557.47;5054277;28;20056;-78
2022/02/25 08:08:21;;;;;;;4.93;1.67;;;;;;;9.18;43.94;101553.88;5049453;28;20052;-78
2022/02/25 08:10:48;;;;;;;7.55;1.50;;;;;;;9.18;44.32;101549.34;5050906;28;20052;-79
2022/02/25 08:13:15;;;;;;;6.05;1.67;;;;;;;9.16;44.04;101554.84;5049682;28;20503;-78
2022/02/25 08:15:42;;;;;;;4.25;1.58;;;;;;;9.18;44.15;101557.47;5048719;28;20072;-77
2022/02/25 08:18:09;;;;;;;7.20;1.60;;;;;;;9.16;44.08;101567.50;5030684;28;20107;-78
2022/02/25 08:20:37;;;;;;;5.93;1.38;;;;;;;9.15;44.20;101576.59;5050764;28;20080;-78
2022/02/25 08:23:04;;;;;;;3.63;1.33;;;;;;;9.13;44.13;101576.69;5039401;28;20476;-78
2022/02/25 08:25:34;;;;;;;6.60;1.65;;;;;;;9.18;44.35;101581.84;5044977;28;20060;-77
2022/02/25 08:28:01;;;;;;;7.60;1.95;;;;;;;9.17;44.29;101580.09;5031475;28;20052;-77
2022/02/25 08:30:28;;;;;;;7.57;2.05;;;;;;;9.18;44.52;101584.56;5049131;28;20072;-78
2022/02/25 08:33:00;;;;;;;5.38;1.90;;;;;;;9.19;44.46;101590.88;5048630;28;20447;-77
2022/02/25 08:35:29;;;;;;;6.93;2.67;;;;;;;9.20;44.92;101582.66;5049184;28;20056;-77
2022/02/25 08:37:56;;;;;;;6.45;1.90;;;;;;;9.21;44.62;101586.25;5049510;28;20093;-77
2022/02/25 08:40:23;;;;;;;7.10;2.58;;;;;;;9.22;44.52;101598.84;5035854;28;20647;-78
2022/02/25 08:42:50;;;;;;;5.63;2.10;;;;;;;9.22;44.66;101591.59;5050168;28;20191;-77
2022/02/25 08:45:17;;;;;;;6.57;2.33;;;;;;;9.24;44.67;101605.06;5048098;28;20089;-77
2022/02/25 08:47:45;;;;;;;5.88;1.95;;;;;;;9.25;44.82;101606.81;5047357;28;20061;-77
2022/02/25 08:50:14;;;;;;;5.25;1.95;;;;;;;9.26;45.15;101614.00;5051708;28;20475;-78
2022/02/25 08:52:42;;;;;;;5.63;1.60;;;;;;;9.28;45.00;101614.81;5050164;28;20056;-77
2022/02/25 08:55:10;;;;;;;6.80;2.20;;;;;;;9.28;45.10;101626.53;5049030;28;20064;-77
2022/02/25 08:57:37;;;;;;;8.15;2.55;;;;;;;9.29;45.15;101616.56;5053327;28;20057;-77
2022/02/25 09:00:11;;;;;;;7.05;2.20;;;;;;;9.31;45.03;101623.63;5053093;28;20053;-77
2022/02/25 09:02:39;;;;;;;5.63;2.13;;;;;;;9.29;45.06;101631.00;5044623;28;20138;-77
2022/02/25 09:05:06;;;;;;;9.82;2.17;;;;;;;9.30;45.37;101623.75;5029757;28;20527;-77
2022/02/25 09:07:33;;;;;;;4.57;1.67;;;;;;;9.29;45.28;101622.88;5049933;28;20140;-77
2022/02/25 09:09:59;;;;;;;5.93;2.20;;;;;;;9.32;45.55;101627.22;5047595;28;20048;-77
2022/02/25 09:12:30;;;;;;;6.97;2.00;;;;;;;9.31;45.41;101634.47;5028548;28;20162;-77
2022/02/25 09:14:57;;;;;;;6.57;1.80;;;;;;;9.33;45.41;101635.28;5048569;28;20041;-77
2022/02/25 09:17:25;;;;;;;7.78;2.05;;;;;;;9.33;45.49;101638.00;5048557;28;20068;-77
2022/02/25 09:19:52;;;;;;;6.28;1.73;;;;;;;9.35;45.55;101651.47;5044994;28;20049;-77
2022/02/25 09:22:19;;;;;;;8.18;2.15;;;;;;;9.37;45.59;101647.75;5045501;28;20126;-77
2022/02/25 09:24:45;;;;;;;6.90;1.73;;;;;;;9.39;45.54;101639.50;5026823;28;20088;-77
2022/02/25 09:27:12;;;;;;;5.55;1.73;;;;;;;9.38;45.67;101663.06;5052143;28;20203;-77
2022/02/25 09:29:39;;;;;;;5.15;1.90;;;;;;;9.39;45.72;101659.38;5043250;28;20065;-77
2022/02/25 09:32:07;;;;;;;5.28;1.70;;;;;;;9.41;45.94;101662.88;5048938;28;20049;-77
2022/02/25 09:34:35;;;;;;;5.30;1.80;;;;;;;9.43;45.77;101655.56;5029702;28;20137;-78
2022/02/25 09:37:03;;;;;;;7.20;2.10;;;;;;;9.45;45.84;101666.34;5030350;28;20053;-77
2022/02/25 09:39:30;;;;;;;4.95;1.90;;;;;;;9.47;45.91;101659.88;5047696;28;20531;-77
2022/02/25 09:41:58;;;;;;;5.05;2.15;;;;;;;9.49;45.69;101663.38;5054353;28;20109;-77
2022/02/25 09:44:26;;;;;;;8.43;1.98;;;;;;;9.55;45.78;101667.66;5054513;28;20057;-77
2022/02/25 09:46:56;;;;;;;7.05;1.95;;;;;;;9.56;45.98;101663.97;5041793;28;20135;-77
2022/02/25 09:49:23;;;;;;;7.15;2.30;;;;;;;9.62;45.68;101674.53;5051780;28;20064;-77
2022/02/25 09:51:53;;;;;;;7.53;1.90;;;;;;;9.61;45.95;101683.59;5049000;28;20053;-77
2022/02/25 09:54:20;;;;;;;7.38;2.38;;;;;;;9.63;45.77;101679.00;5024328;28;20432;-77
2022/02/25 09:56:48;;;;;;;7.53;1.90;;;;;;;9.66;46.03;101680.66;5047960;28;20110;-76
2022/02/25 09:59:17;;;;;;;6.60;2.10;;;;;;;9.67;46.23;101685.13;5041510;28;20084;-76
2022/02/25 10:01:45;;;;;;;6.00;2.58;;;;;;;9.70;46.20;101690.41;5047257;28;20081;-77
2022/02/25 10:04:22;;;;;;;4.63;1.85;;;;;;;9.73;46.63;101690.22;5045800;28;20399;-77
2022/02/25 10:06:49;;;;;;;5.20;1.70;;;;;;;9.73;46.26;101698.38;5028492;28;20045;-77
2022/02/25 10:09:33;;;;;;;4.78;2.20;;;;;;;9.77;46.34;101702.69;5044460;28;20060;-77
2022/02/25 10:12:11;;;;;;;8.00;2.50;;;;;;;9.80;46.14;101705.25;5041843;28;20082;-77
2022/02/25 10:14:48;;;;;;;6.10;2.20;;;;;;;9.82;46.41;101711.47;5034834;28;20049;-77
2022/02/25 10:17:19;;;;;;;6.47;2.13;;;;;;;9.85;46.16;101705.91;5048427;28;20447;-78
2022/02/25 10:20:05;;;;;;;6.68;2.22;;;;;;;9.88;46.31;101709.31;5040374;28;20102;-77
2022/02/25 10:22:51;;;;;;;6.75;1.90;;;;;;;9.86;46.29;101718.50;5042602;28;20071;-77
2022/02/25 10:25:21;;;;;;;8.60;2.00;;;;;;;9.90;46.36;101728.22;5050632;28;20048;-77
2022/02/25 10:27:51;;;;;;;5.72;2.13;;;;;;;9.92;46.36;101729.94;5063095;28;20094;-77
2022/02/25 10:30:20;;;;;;;8.60;2.72;;;;;;;9.97;46.54;101735.09;5054593;28;20057;-77
2022/02/25 10:32:48;;;;;;;6.22;2.30;;;;;;;10.01;46.29;101734.00;5034811;28;20098;-77
2022/02/25 10:35:27;;;;;;;8.05;2.55;;;;;;;10.08;46.14;101749.03;5063379;28;20049;-77
2022/02/25 10:38:06;;;;;;;4.40;1.92;;;;;;;10.06;46.49;101739.19;5033987;28;20088;-77
2022/02/25 10:40:38;;;;;;;8.68;2.40;;;;;;;10.10;46.09;101744.41;5040437;28;20049;-77
2022/02/25 10:43:21;;;;;;;5.10;2.13;;;;;;;10.12;46.50;101745.22;5050897;28;20106;-77
2022/02/25 10:45:48;;;;;;;;;;;;;;;9.94;46.58;101751.56;5052081;28;20381;-77
2022/02/25 10:48:17;;;;;;;7.30;1.95;;;;;;;10.15;46.32;101741.44;5051066;28;19921;-77
2022/02/25 10:51:00;;;;;;;6.80;2.55;;;;;;;10.21;46.72;101758.31;5054982;28;20053;-77
2022/02/25 10:53:26;;;;;;;6.50;2.28;;;;;;;10.23;46.52;101752.81;5044398;28;20072;-78
2022/02/25 10:56:06;;;;;;;4.70;1.88;;;;;;;10.30;46.55;101756.97;5051520;28;20052;-78
2022/02/25 10:58:51;;;;;;;8.15;3.03;;;;;;;10.36;46.56;101745.81;5049766;28;20496;-78
2022/02/25 11:01:22;;;;;;;7.63;2.40;;;;;;;10.41;46.72;101768.16;5052699;28;20091;-79
2022/02/25 11:04:01;;;;;;;7.03;2.30;;;;;;;10.47;47.06;101764.25;5045331;28;20513;-79
2022/02/25 11:06:31;;;;;;;6.03;2.75;;;;;;;10.52;47.15;101768.50;5019478;28;20074;-78
2022/02/25 11:08:58;;;;;;;9.00;2.80;;;;;;;10.60;46.95;101762.66;5058780;28;20052;-78
2022/02/25 11:11:25;;;;;;;5.47;2.20;;;;;;;10.66;46.86;101756.91;5052026;28;20049;-78
2022/02/25 11:13:52;;;;;;;5.13;2.08;;;;;;;10.75;46.87;101755.53;5052902;28;20068;-78
2022/02/25 11:16:20;;;;;;;5.55;2.17;;;;;;;10.81;46.47;101750.66;5061805;28;20048;-77
2022/02/25 11:19:08;;;;;;;7.00;2.80;;;;;;;10.87;46.48;101741.31;5052924;28;20123;-78
2022/02/25 11:21:35;;;;;;;6.55;2.20;;;;;;;10.92;46.32;101750.97;5057310;28;20103;-79
2022/02/25 11:24:03;;;;;;;6.75;2.22;;;;;;;10.95;45.99;101747.22;5063570;28;20533;-78
2022/02/25 11:26:30;;;;;;;5.22;2.70;;;;;;;11.00;45.91;101745.97;5057251;28;20048;-78
2022/02/25 11:29:01;;;;;;;6.60;2.28;;;;;;;11.00;45.94;101750.53;5050536;28;20470;-78
2022/02/25 11:31:32;;;;;;;6.28;2.20;;;;;;;11.04;45.81;101738.53;5051419;28;20262;-79
2022/02/25 11:34:06;;;;;;;8.25;2.20;;;;;;;11.07;45.86;101750.13;5050252;28;20057;-78
2022/02/25 11:36:49;;;;;;;5.60;2.30;;;;;;;11.10;45.71;101737.34;5051927;28;20103;-78
2022/02/25 11:39:24;;;;;;;6.43;1.98;;;;;;;11.12;46.12;101749.84;5033349;28;20084;-78
2022/02/25 11:41:53;;;;;;;7.65;2.40;;;;;;;11.17;46.04;101749.63;5053704;28;20056;-78